sensor_id;sensor_type;location;lat;lon;timestamp;P1;durP1;ratioP1;P2;durP2;ratioP2
57752;SDS011;43583;53.132;6.574;2023-07-09T00:00:49;6.90;;;3.53;;
57752;SDS011;43583;53.132;6.574;2023-07-09T00:03:15;4.13;;;3.20;;
57752;SDS011;43583;53.132;6.574;2023-07-09T00:05:42;7.03;;;3.72;;
57752;SDS011;43583;53.132;6.574;2023-07-09T00:08:21;5.38;;;3.08;;
57752;SDS011;43583;53.132;6.574;2023-07-09T00:10:54;3.97;;;2.72;;
57752;SDS011;43583;53.132;6.574;2023-07-09T00:13:21;4.15;;;3.08;;
57752;SDS011;43583;53.132;6.574;2023-07-09T00:15:49;5.30;;;3.17;;
57752;SDS011;43583;53.132;6.574;2023-07-09T00:18:15;5.22;;;3.17;;
57752;SDS011;43583;53.132;6.574;2023-07-09T00:20:41;5.93;;;3.33;;
57752;SDS011;43583;53.132;6.574;2023-07-09T00:23:09;7.25;;;3.22;;
57752;SDS011;43583;53.132;6.574;2023-07-09T00:25:38;4.38;;;3.08;;
57752;SDS011;43583;53.132;6.574;2023-07-09T00:28:18;6.40;;;3.38;;
57752;SDS011;43583;53.132;6.574;2023-07-09T00:30:45;5.55;;;3.22;;
57752;SDS011;43583;53.132;6.574;2023-07-09T00:33:12;5.72;;;2.92;;
57752;SDS011;43583;53.132;6.574;2023-07-09T00:35:39;6.05;;;3.63;;
57752;SDS011;43583;53.132;6.574;2023-07-09T00:38:08;4.18;;;3.17;;
57752;SDS011;43583;53.132;6.574;2023-07-09T00:41:04;3.53;;;3.08;;
57752;SDS011;43583;53.132;6.574;2023-07-09T00:43:32;5.82;;;3.33;;
57752;SDS011;43583;53.132;6.574;2023-07-09T00:48:44;6.20;;;3.77;;
57752;SDS011;43583;53.132;6.574;2023-07-09T00:51:16;4.25;;;3.38;;
57752;SDS011;43583;53.132;6.574;2023-07-09T00:53:45;5.07;;;3.15;;
57752;SDS011;43583;53.132;6.574;2023-07-09T00:56:16;6.10;;;3.47;;
57752;SDS011;43583;53.132;6.574;2023-07-09T00:58:49;6.03;;;2.85;;
57752;SDS011;43583;53.132;6.574;2023-07-09T01:01:16;4.00;;;2.92;;
57752;SDS011;43583;53.132;6.574;2023-07-09T01:03:53;5.97;;;3.53;;
57752;SDS011;43583;53.132;6.574;2023-07-09T01:06:26;5.82;;;3.30;;
57752;SDS011;43583;53.132;6.574;2023-07-09T01:09:13;7.03;;;4.03;;
57752;SDS011;43583;53.132;6.574;2023-07-09T01:11:40;5.80;;;3.75;;
57752;SDS011;43583;53.132;6.574;2023-07-09T01:14:07;3.17;;;2.85;;
57752;SDS011;43583;53.132;6.574;2023-07-09T01:16:37;4.68;;;3.25;;
57752;SDS011;43583;53.132;6.574;2023-07-09T01:19:07;4.10;;;3.03;;
57752;SDS011;43583;53.132;6.574;2023-07-09T01:21:32;3.78;;;2.55;;
57752;SDS011;43583;53.132;6.574;2023-07-09T01:23:58;4.90;;;3.72;;
57752;SDS011;43583;53.132;6.574;2023-07-09T01:26:35;4.85;;;3.63;;
57752;SDS011;43583;53.132;6.574;2023-07-09T01:29:03;4.82;;;2.83;;
57752;SDS011;43583;53.132;6.574;2023-07-09T01:31:29;6.47;;;3.78;;
57752;SDS011;43583;53.132;6.574;2023-07-09T01:33:54;4.78;;;3.42;;
57752;SDS011;43583;53.132;6.574;2023-07-09T01:36:20;6.13;;;3.95;;
57752;SDS011;43583;53.132;6.574;2023-07-09T01:38:47;8.48;;;4.35;;
57752;SDS011;43583;53.132;6.574;2023-07-09T01:41:14;4.47;;;3.22;;
57752;SDS011;43583;53.132;6.574;2023-07-09T01:43:41;4.63;;;3.65;;
57752;SDS011;43583;53.132;6.574;2023-07-09T01:46:07;5.32;;;3.90;;
57752;SDS011;43583;53.132;6.574;2023-07-09T01:48:34;5.13;;;3.92;;
57752;SDS011;43583;53.132;6.574;2023-07-09T01:51:06;3.72;;;2.78;;
57752;SDS011;43583;53.132;6.574;2023-07-09T01:53:32;4.35;;;2.97;;
57752;SDS011;43583;53.132;6.574;2023-07-09T01:55:58;3.83;;;3.15;;
57752;SDS011;43583;53.132;6.574;2023-07-09T01:58:24;3.90;;;3.20;;
57752;SDS011;43583;53.132;6.574;2023-07-09T02:00:50;4.30;;;3.63;;
57752;SDS011;43583;53.132;6.574;2023-07-09T02:03:16;8.85;;;4.05;;
57752;SDS011;43583;53.132;6.574;2023-07-09T02:05:43;4.88;;;4.10;;
57752;SDS011;43583;53.132;6.574;2023-07-09T02:08:08;5.43;;;3.42;;
57752;SDS011;43583;53.132;6.574;2023-07-09T02:10:34;6.28;;;3.67;;
57752;SDS011;43583;53.132;6.574;2023-07-09T02:12:59;4.57;;;3.33;;
57752;SDS011;43583;53.132;6.574;2023-07-09T02:15:25;6.35;;;3.30;;
57752;SDS011;43583;53.132;6.574;2023-07-09T02:17:51;6.22;;;4.05;;
57752;SDS011;43583;53.132;6.574;2023-07-09T02:20:17;5.50;;;3.72;;
57752;SDS011;43583;53.132;6.574;2023-07-09T02:22:44;6.35;;;3.45;;
57752;SDS011;43583;53.132;6.574;2023-07-09T02:25:09;5.82;;;3.63;;
57752;SDS011;43583;53.132;6.574;2023-07-09T02:27:36;5.55;;;3.92;;
57752;SDS011;43583;53.132;6.574;2023-07-09T02:30:02;4.65;;;3.38;;
57752;SDS011;43583;53.132;6.574;2023-07-09T02:32:28;5.32;;;3.90;;
57752;SDS011;43583;53.132;6.574;2023-07-09T02:34:54;6.50;;;4.38;;
57752;SDS011;43583;53.132;6.574;2023-07-09T02:37:21;4.90;;;3.28;;
57752;SDS011;43583;53.132;6.574;2023-07-09T02:39:51;5.30;;;3.90;;
57752;SDS011;43583;53.132;6.574;2023-07-09T02:42:18;6.93;;;3.83;;
57752;SDS011;43583;53.132;6.574;2023-07-09T02:44:44;5.30;;;3.50;;
57752;SDS011;43583;53.132;6.574;2023-07-09T02:47:10;5.68;;;4.10;;
57752;SDS011;43583;53.132;6.574;2023-07-09T02:49:37;6.38;;;4.05;;
57752;SDS011;43583;53.132;6.574;2023-07-09T02:52:03;6.60;;;3.75;;
57752;SDS011;43583;53.132;6.574;2023-07-09T02:54:29;5.05;;;4.47;;
57752;SDS011;43583;53.132;6.574;2023-07-09T02:56:55;7.93;;;3.85;;
57752;SDS011;43583;53.132;6.574;2023-07-09T02:59:21;5.93;;;4.40;;
57752;SDS011;43583;53.132;6.574;2023-07-09T03:01:46;5.10;;;4.15;;
57752;SDS011;43583;53.132;6.574;2023-07-09T03:04:12;5.43;;;4.22;;
57752;SDS011;43583;53.132;6.574;2023-07-09T03:06:38;5.63;;;4.63;;
57752;SDS011;43583;53.132;6.574;2023-07-09T03:09:05;5.95;;;3.88;;
57752;SDS011;43583;53.132;6.574;2023-07-09T03:11:31;7.70;;;4.38;;
57752;SDS011;43583;53.132;6.574;2023-07-09T03:13:58;5.78;;;3.30;;
57752;SDS011;43583;53.132;6.574;2023-07-09T03:16:28;7.05;;;3.97;;
57752;SDS011;43583;53.132;6.574;2023-07-09T03:18:55;4.75;;;4.07;;
57752;SDS011;43583;53.132;6.574;2023-07-09T03:21:21;5.85;;;4.70;;
57752;SDS011;43583;53.132;6.574;2023-07-09T03:23:47;6.65;;;4.35;;
57752;SDS011;43583;53.132;6.574;2023-07-09T03:26:13;4.70;;;3.35;;
57752;SDS011;43583;53.132;6.574;2023-07-09T03:28:40;9.20;;;5.03;;
57752;SDS011;43583;53.132;6.574;2023-07-09T03:31:06;7.90;;;5.03;;
57752;SDS011;43583;53.132;6.574;2023-07-09T03:33:31;7.97;;;4.57;;
57752;SDS011;43583;53.132;6.574;2023-07-09T03:35:57;5.72;;;4.20;;
57752;SDS011;43583;53.132;6.574;2023-07-09T03:38:22;5.65;;;4.45;;
57752;SDS011;43583;53.132;6.574;2023-07-09T03:40:51;6.88;;;4.97;;
57752;SDS011;43583;53.132;6.574;2023-07-09T03:43:18;5.53;;;4.72;;
57752;SDS011;43583;53.132;6.574;2023-07-09T03:45:45;5.90;;;4.57;;
57752;SDS011;43583;53.132;6.574;2023-07-09T03:48:12;7.03;;;4.72;;
57752;SDS011;43583;53.132;6.574;2023-07-09T03:50:38;5.63;;;4.43;;
57752;SDS011;43583;53.132;6.574;2023-07-09T03:53:04;6.72;;;4.22;;
57752;SDS011;43583;53.132;6.574;2023-07-09T03:55:33;5.07;;;3.60;;
57752;SDS011;43583;53.132;6.574;2023-07-09T03:57:58;7.15;;;4.63;;
57752;SDS011;43583;53.132;6.574;2023-07-09T04:00:24;6.22;;;4.07;;
57752;SDS011;43583;53.132;6.574;2023-07-09T04:02:50;7.60;;;4.90;;
57752;SDS011;43583;53.132;6.574;2023-07-09T04:05:17;7.65;;;4.78;;
57752;SDS011;43583;53.132;6.574;2023-07-09T04:07:43;6.63;;;4.35;;
57752;SDS011;43583;53.132;6.574;2023-07-09T04:10:09;9.80;;;4.65;;
57752;SDS011;43583;53.132;6.574;2023-07-09T04:12:35;5.88;;;4.60;;
57752;SDS011;43583;53.132;6.574;2023-07-09T04:15:02;5.07;;;4.50;;
57752;SDS011;43583;53.132;6.574;2023-07-09T04:17:29;5.45;;;3.90;;
57752;SDS011;43583;53.132;6.574;2023-07-09T04:19:54;5.88;;;3.97;;
57752;SDS011;43583;53.132;6.574;2023-07-09T04:22:20;5.68;;;4.50;;
57752;SDS011;43583;53.132;6.574;2023-07-09T04:24:46;6.35;;;4.85;;
57752;SDS011;43583;53.132;6.574;2023-07-09T04:27:12;4.80;;;3.60;;
57752;SDS011;43583;53.132;6.574;2023-07-09T04:29:38;4.93;;;4.22;;
57752;SDS011;43583;53.132;6.574;2023-07-09T04:32:11;5.45;;;4.30;;
57752;SDS011;43583;53.132;6.574;2023-07-09T04:34:38;5.47;;;4.32;;
57752;SDS011;43583;53.132;6.574;2023-07-09T04:37:05;5.82;;;3.67;;
57752;SDS011;43583;53.132;6.574;2023-07-09T04:39:32;6.80;;;3.40;;
57752;SDS011;43583;53.132;6.574;2023-07-09T04:41:58;4.13;;;3.60;;
57752;SDS011;43583;53.132;6.574;2023-07-09T04:44:24;6.82;;;4.40;;
57752;SDS011;43583;53.132;6.574;2023-07-09T04:46:50;4.88;;;3.85;;
57752;SDS011;43583;53.132;6.574;2023-07-09T04:49:16;7.60;;;3.03;;
57752;SDS011;43583;53.132;6.574;2023-07-09T04:51:41;4.10;;;3.25;;
57752;SDS011;43583;53.132;6.574;2023-07-09T04:54:07;4.97;;;3.30;;
57752;SDS011;43583;53.132;6.574;2023-07-09T04:56:32;5.60;;;3.67;;
57752;SDS011;43583;53.132;6.574;2023-07-09T04:58:58;4.63;;;3.67;;
57752;SDS011;43583;53.132;6.574;2023-07-09T05:01:24;5.05;;;3.70;;
57752;SDS011;43583;53.132;6.574;2023-07-09T05:03:49;6.10;;;4.13;;
57752;SDS011;43583;53.132;6.574;2023-07-09T05:06:15;4.90;;;3.40;;
57752;SDS011;43583;53.132;6.574;2023-07-09T05:08:40;2.92;;;2.67;;
57752;SDS011;43583;53.132;6.574;2023-07-09T05:11:07;4.35;;;3.50;;
57752;SDS011;43583;53.132;6.574;2023-07-09T05:13:32;5.03;;;2.90;;
57752;SDS011;43583;53.132;6.574;2023-07-09T05:15:58;4.22;;;3.28;;
57752;SDS011;43583;53.132;6.574;2023-07-09T05:18:24;5.40;;;3.13;;
57752;SDS011;43583;53.132;6.574;2023-07-09T05:20:49;6.60;;;3.20;;
57752;SDS011;43583;53.132;6.574;2023-07-09T05:23:15;4.25;;;3.40;;
57752;SDS011;43583;53.132;6.574;2023-07-09T05:25:41;3.70;;;2.95;;
57752;SDS011;43583;53.132;6.574;2023-07-09T05:28:06;4.38;;;2.60;;
57752;SDS011;43583;53.132;6.574;2023-07-09T05:30:32;4.68;;;3.08;;
57752;SDS011;43583;53.132;6.574;2023-07-09T05:32:57;3.28;;;2.80;;
57752;SDS011;43583;53.132;6.574;2023-07-09T05:35:24;4.38;;;2.58;;
57752;SDS011;43583;53.132;6.574;2023-07-09T05:37:51;4.57;;;3.00;;
57752;SDS011;43583;53.132;6.574;2023-07-09T05:40:18;3.53;;;3.13;;
57752;SDS011;43583;53.132;6.574;2023-07-09T05:42:43;8.45;;;3.55;;
57752;SDS011;43583;53.132;6.574;2023-07-09T05:45:09;4.43;;;3.05;;
57752;SDS011;43583;53.132;6.574;2023-07-09T05:47:35;5.10;;;3.03;;
57752;SDS011;43583;53.132;6.574;2023-07-09T05:50:01;3.65;;;3.17;;
57752;SDS011;43583;53.132;6.574;2023-07-09T05:52:28;5.80;;;3.38;;
57752;SDS011;43583;53.132;6.574;2023-07-09T05:54:54;3.97;;;3.28;;
57752;SDS011;43583;53.132;6.574;2023-07-09T05:57:20;5.57;;;3.40;;
57752;SDS011;43583;53.132;6.574;2023-07-09T05:59:46;3.88;;;3.47;;
57752;SDS011;43583;53.132;6.574;2023-07-09T06:02:17;4.90;;;3.28;;
57752;SDS011;43583;53.132;6.574;2023-07-09T06:04:44;3.13;;;2.72;;
57752;SDS011;43583;53.132;6.574;2023-07-09T06:07:10;4.68;;;3.08;;
57752;SDS011;43583;53.132;6.574;2023-07-09T06:09:38;4.15;;;3.10;;
57752;SDS011;43583;53.132;6.574;2023-07-09T06:12:04;4.90;;;3.90;;
57752;SDS011;43583;53.132;6.574;2023-07-09T06:14:31;4.85;;;3.35;;
57752;SDS011;43583;53.132;6.574;2023-07-09T06:16:58;3.80;;;3.40;;
57752;SDS011;43583;53.132;6.574;2023-07-09T06:19:24;3.85;;;2.78;;
57752;SDS011;43583;53.132;6.574;2023-07-09T06:21:50;6.13;;;3.38;;
57752;SDS011;43583;53.132;6.574;2023-07-09T06:24:15;4.80;;;3.35;;
57752;SDS011;43583;53.132;6.574;2023-07-09T06:26:41;5.15;;;3.25;;
57752;SDS011;43583;53.132;6.574;2023-07-09T06:29:07;5.95;;;3.53;;
57752;SDS011;43583;53.132;6.574;2023-07-09T06:31:32;4.05;;;3.22;;
57752;SDS011;43583;53.132;6.574;2023-07-09T06:33:58;3.97;;;2.65;;
57752;SDS011;43583;53.132;6.574;2023-07-09T06:36:23;4.30;;;3.50;;
57752;SDS011;43583;53.132;6.574;2023-07-09T06:38:49;5.15;;;3.70;;
57752;SDS011;43583;53.132;6.574;2023-07-09T06:41:15;6.25;;;3.35;;
57752;SDS011;43583;53.132;6.574;2023-07-09T06:43:41;4.07;;;3.40;;
57752;SDS011;43583;53.132;6.574;2023-07-09T06:46:08;4.40;;;3.22;;
57752;SDS011;43583;53.132;6.574;2023-07-09T06:48:36;4.40;;;3.85;;
57752;SDS011;43583;53.132;6.574;2023-07-09T06:51:02;5.18;;;3.65;;
57752;SDS011;43583;53.132;6.574;2023-07-09T06:53:27;6.05;;;3.22;;
57752;SDS011;43583;53.132;6.574;2023-07-09T06:55:54;5.50;;;3.38;;
57752;SDS011;43583;53.132;6.574;2023-07-09T06:58:24;4.82;;;3.13;;
57752;SDS011;43583;53.132;6.574;2023-07-09T07:00:52;4.07;;;2.75;;
57752;SDS011;43583;53.132;6.574;2023-07-09T07:03:19;3.97;;;3.25;;
57752;SDS011;43583;53.132;6.574;2023-07-09T07:05:45;4.57;;;3.30;;
57752;SDS011;43583;53.132;6.574;2023-07-09T07:08:14;2.90;;;2.60;;
57752;SDS011;43583;53.132;6.574;2023-07-09T07:10:43;3.35;;;2.45;;
57752;SDS011;43583;53.132;6.574;2023-07-09T07:13:37;4.03;;;2.72;;
57752;SDS011;43583;53.132;6.574;2023-07-09T07:16:05;5.60;;;3.40;;
57752;SDS011;43583;53.132;6.574;2023-07-09T07:18:32;3.60;;;2.72;;
57752;SDS011;43583;53.132;6.574;2023-07-09T07:20:58;4.35;;;3.17;;
57752;SDS011;43583;53.132;6.574;2023-07-09T07:23:23;4.30;;;2.75;;
57752;SDS011;43583;53.132;6.574;2023-07-09T07:25:49;3.80;;;2.78;;
57752;SDS011;43583;53.132;6.574;2023-07-09T07:28:16;3.22;;;2.75;;
57752;SDS011;43583;53.132;6.574;2023-07-09T07:30:42;3.13;;;2.15;;
57752;SDS011;43583;53.132;6.574;2023-07-09T07:33:08;4.65;;;3.25;;
57752;SDS011;43583;53.132;6.574;2023-07-09T07:35:34;3.50;;;2.78;;
57752;SDS011;43583;53.132;6.574;2023-07-09T07:37:59;5.22;;;2.70;;
57752;SDS011;43583;53.132;6.574;2023-07-09T07:40:25;4.97;;;2.53;;
57752;SDS011;43583;53.132;6.574;2023-07-09T07:42:51;4.03;;;3.25;;
57752;SDS011;43583;53.132;6.574;2023-07-09T07:45:16;3.40;;;3.05;;
57752;SDS011;43583;53.132;6.574;2023-07-09T07:47:42;4.68;;;3.40;;
57752;SDS011;43583;53.132;6.574;2023-07-09T07:50:08;4.47;;;3.05;;
57752;SDS011;43583;53.132;6.574;2023-07-09T07:52:35;3.75;;;2.85;;
57752;SDS011;43583;53.132;6.574;2023-07-09T07:55:05;3.40;;;2.72;;
57752;SDS011;43583;53.132;6.574;2023-07-09T07:57:32;4.90;;;3.53;;
57752;SDS011;43583;53.132;6.574;2023-07-09T07:59:58;3.83;;;2.58;;
57752;SDS011;43583;53.132;6.574;2023-07-09T08:02:24;4.35;;;3.05;;
57752;SDS011;43583;53.132;6.574;2023-07-09T08:04:49;3.72;;;2.95;;
57752;SDS011;43583;53.132;6.574;2023-07-09T08:07:16;3.67;;;3.15;;
57752;SDS011;43583;53.132;6.574;2023-07-09T08:09:43;3.30;;;2.90;;
57752;SDS011;43583;53.132;6.574;2023-07-09T08:12:09;5.90;;;3.00;;
57752;SDS011;43583;53.132;6.574;2023-07-09T08:14:37;5.40;;;2.58;;
57752;SDS011;43583;53.132;6.574;2023-07-09T08:17:03;4.13;;;2.75;;
57752;SDS011;43583;53.132;6.574;2023-07-09T08:19:29;2.45;;;2.25;;
57752;SDS011;43583;53.132;6.574;2023-07-09T08:21:56;2.67;;;2.15;;
57752;SDS011;43583;53.132;6.574;2023-07-09T08:24:22;2.97;;;2.38;;
57752;SDS011;43583;53.132;6.574;2023-07-09T08:26:47;3.35;;;2.63;;
57752;SDS011;43583;53.132;6.574;2023-07-09T08:29:13;3.30;;;2.55;;
57752;SDS011;43583;53.132;6.574;2023-07-09T08:31:39;3.53;;;2.78;;
57752;SDS011;43583;53.132;6.574;2023-07-09T08:34:06;5.72;;;3.53;;
57752;SDS011;43583;53.132;6.574;2023-07-09T08:36:33;3.65;;;2.30;;
57752;SDS011;43583;53.132;6.574;2023-07-09T08:39:00;6.07;;;3.22;;
57752;SDS011;43583;53.132;6.574;2023-07-09T08:41:39;4.35;;;3.13;;
57752;SDS011;43583;53.132;6.574;2023-07-09T08:44:28;4.90;;;2.25;;
57752;SDS011;43583;53.132;6.574;2023-07-09T08:49:53;3.70;;;2.80;;
57752;SDS011;43583;53.132;6.574;2023-07-09T08:52:30;6.47;;;3.35;;
57752;SDS011;43583;53.132;6.574;2023-07-09T08:55:01;4.38;;;2.42;;
57752;SDS011;43583;53.132;6.574;2023-07-09T08:57:34;5.40;;;2.42;;
57752;SDS011;43583;53.132;6.574;2023-07-09T09:00:15;3.20;;;2.90;;
57752;SDS011;43583;53.132;6.574;2023-07-09T09:02:59;4.32;;;2.70;;
57752;SDS011;43583;53.132;6.574;2023-07-09T09:05:29;5.35;;;2.63;;
57752;SDS011;43583;53.132;6.574;2023-07-09T09:08:03;4.75;;;2.80;;
57752;SDS011;43583;53.132;6.574;2023-07-09T09:10:46;2.72;;;2.45;;
57752;SDS011;43583;53.132;6.574;2023-07-09T09:13:16;5.85;;;3.40;;
57752;SDS011;43583;53.132;6.574;2023-07-09T09:15:46;5.15;;;3.20;;
57752;SDS011;43583;53.132;6.574;2023-07-09T09:18:19;3.90;;;3.40;;
57752;SDS011;43583;53.132;6.574;2023-07-09T09:23:39;3.85;;;2.72;;
57752;SDS011;43583;53.132;6.574;2023-07-09T09:26:15;5.72;;;3.15;;
57752;SDS011;43583;53.132;6.574;2023-07-09T09:28:49;3.95;;;2.80;;
57752;SDS011;43583;53.132;6.574;2023-07-09T09:31:15;4.40;;;3.20;;
57752;SDS011;43583;53.132;6.574;2023-07-09T09:33:43;3.65;;;2.95;;
57752;SDS011;43583;53.132;6.574;2023-07-09T09:36:14;6.13;;;3.67;;
57752;SDS011;43583;53.132;6.574;2023-07-09T09:38:51;5.30;;;3.33;;
57752;SDS011;43583;53.132;6.574;2023-07-09T09:41:21;5.47;;;2.95;;
57752;SDS011;43583;53.132;6.574;2023-07-09T09:43:49;4.13;;;3.25;;
57752;SDS011;43583;53.132;6.574;2023-07-09T09:46:18;5.75;;;3.33;;
57752;SDS011;43583;53.132;6.574;2023-07-09T09:48:44;4.00;;;2.95;;
57752;SDS011;43583;53.132;6.574;2023-07-09T09:51:11;4.82;;;3.20;;
57752;SDS011;43583;53.132;6.574;2023-07-09T09:53:39;4.90;;;3.60;;
57752;SDS011;43583;53.132;6.574;2023-07-09T09:56:14;5.97;;;3.72;;
57752;SDS011;43583;53.132;6.574;2023-07-09T09:58:52;5.80;;;4.25;;
57752;SDS011;43583;53.132;6.574;2023-07-09T10:01:19;5.93;;;5.18;;
57752;SDS011;43583;53.132;6.574;2023-07-09T10:03:47;6.88;;;4.28;;
57752;SDS011;43583;53.132;6.574;2023-07-09T10:06:22;5.53;;;3.65;;
57752;SDS011;43583;53.132;6.574;2023-07-09T10:11:57;5.72;;;4.22;;
57752;SDS011;43583;53.132;6.574;2023-07-09T10:14:41;7.00;;;3.53;;
57752;SDS011;43583;53.132;6.574;2023-07-09T10:17:37;5.05;;;3.55;;
57752;SDS011;43583;53.132;6.574;2023-07-09T10:20:23;6.32;;;5.20;;
57752;SDS011;43583;53.132;6.574;2023-07-09T10:25:54;4.43;;;4.03;;
57752;SDS011;43583;53.132;6.574;2023-07-09T10:31:22;4.97;;;4.47;;
57752;SDS011;43583;53.132;6.574;2023-07-09T10:34:05;6.43;;;4.25;;
57752;SDS011;43583;53.132;6.574;2023-07-09T10:39:22;5.78;;;4.55;;
57752;SDS011;43583;53.132;6.574;2023-07-09T10:41:53;5.53;;;4.95;;
57752;SDS011;43583;53.132;6.574;2023-07-09T10:44:46;7.30;;;5.00;;
57752;SDS011;43583;53.132;6.574;2023-07-09T10:47:17;6.32;;;5.22;;
57752;SDS011;43583;53.132;6.574;2023-07-09T10:50:09;6.93;;;4.45;;
57752;SDS011;43583;53.132;6.574;2023-07-09T10:52:57;5.80;;;4.97;;
57752;SDS011;43583;53.132;6.574;2023-07-09T10:55:56;6.55;;;4.80;;
57752;SDS011;43583;53.132;6.574;2023-07-09T10:58:53;8.57;;;4.90;;
57752;SDS011;43583;53.132;6.574;2023-07-09T11:01:54;6.32;;;4.50;;
57752;SDS011;43583;53.132;6.574;2023-07-09T11:04:26;5.72;;;4.38;;
57752;SDS011;43583;53.132;6.574;2023-07-09T11:07:13;5.00;;;3.60;;
57752;SDS011;43583;53.132;6.574;2023-07-09T11:09:43;4.22;;;3.42;;
57752;SDS011;43583;53.132;6.574;2023-07-09T11:12:18;5.60;;;4.47;;
57752;SDS011;43583;53.132;6.574;2023-07-09T11:14:59;4.68;;;3.45;;
57752;SDS011;43583;53.132;6.574;2023-07-09T11:17:33;6.97;;;3.78;;
57752;SDS011;43583;53.132;6.574;2023-07-09T11:20:06;6.00;;;4.85;;
57752;SDS011;43583;53.132;6.574;2023-07-09T11:22:40;5.32;;;3.03;;
57752;SDS011;43583;53.132;6.574;2023-07-09T11:25:10;5.78;;;3.95;;
57752;SDS011;43583;53.132;6.574;2023-07-09T11:30:20;5.82;;;4.18;;
57752;SDS011;43583;53.132;6.574;2023-07-09T11:32:52;5.72;;;4.70;;
57752;SDS011;43583;53.132;6.574;2023-07-09T11:35:49;7.72;;;3.28;;
57752;SDS011;43583;53.132;6.574;2023-07-09T11:38:17;4.05;;;3.63;;
57752;SDS011;43583;53.132;6.574;2023-07-09T11:40:46;6.05;;;4.30;;
57752;SDS011;43583;53.132;6.574;2023-07-09T11:43:25;5.20;;;4.15;;
57752;SDS011;43583;53.132;6.574;2023-07-09T11:46:13;8.65;;;5.20;;
57752;SDS011;43583;53.132;6.574;2023-07-09T11:48:42;6.80;;;4.25;;
57752;SDS011;43583;53.132;6.574;2023-07-09T11:51:16;4.35;;;3.95;;
57752;SDS011;43583;53.132;6.574;2023-07-09T11:53:47;3.97;;;3.58;;
57752;SDS011;43583;53.132;6.574;2023-07-09T11:56:20;4.68;;;3.92;;
57752;SDS011;43583;53.132;6.574;2023-07-09T11:58:51;6.78;;;4.70;;
57752;SDS011;43583;53.132;6.574;2023-07-09T12:01:21;4.93;;;4.13;;
57752;SDS011;43583;53.132;6.574;2023-07-09T12:04:04;5.32;;;4.47;;
57752;SDS011;43583;53.132;6.574;2023-07-09T12:06:31;5.68;;;4.35;;
57752;SDS011;43583;53.132;6.574;2023-07-09T12:08:58;6.90;;;4.85;;
57752;SDS011;43583;53.132;6.574;2023-07-09T12:11:27;4.95;;;4.20;;
57752;SDS011;43583;53.132;6.574;2023-07-09T12:13:54;5.75;;;3.80;;
57752;SDS011;43583;53.132;6.574;2023-07-09T12:16:36;4.95;;;4.10;;
57752;SDS011;43583;53.132;6.574;2023-07-09T12:19:04;4.97;;;4.20;;
57752;SDS011;43583;53.132;6.574;2023-07-09T12:21:30;6.55;;;4.20;;
57752;SDS011;43583;53.132;6.574;2023-07-09T12:24:00;4.93;;;3.83;;
57752;SDS011;43583;53.132;6.574;2023-07-09T12:26:30;5.07;;;3.20;;
57752;SDS011;43583;53.132;6.574;2023-07-09T12:28:57;4.38;;;2.90;;
57752;SDS011;43583;53.132;6.574;2023-07-09T12:31:29;6.03;;;3.47;;
57752;SDS011;43583;53.132;6.574;2023-07-09T12:33:56;4.68;;;3.35;;
57752;SDS011;43583;53.132;6.574;2023-07-09T12:36:23;3.92;;;2.20;;
57752;SDS011;43583;53.132;6.574;2023-07-09T12:38:51;5.38;;;3.63;;
57752;SDS011;43583;53.132;6.574;2023-07-09T12:41:22;4.95;;;2.83;;
57752;SDS011;43583;53.132;6.574;2023-07-09T12:43:51;4.10;;;2.75;;
57752;SDS011;43583;53.132;6.574;2023-07-09T12:46:18;4.05;;;3.65;;
57752;SDS011;43583;53.132;6.574;2023-07-09T12:48:45;5.55;;;3.20;;
57752;SDS011;43583;53.132;6.574;2023-07-09T12:51:18;2.75;;;2.15;;
57752;SDS011;43583;53.132;6.574;2023-07-09T12:53:48;3.60;;;2.70;;
57752;SDS011;43583;53.132;6.574;2023-07-09T12:56:15;3.40;;;3.03;;
57752;SDS011;43583;53.132;6.574;2023-07-09T12:58:42;5.43;;;2.65;;
57752;SDS011;43583;53.132;6.574;2023-07-09T13:01:15;4.38;;;2.67;;
57752;SDS011;43583;53.132;6.574;2023-07-09T13:03:42;3.50;;;2.70;;
57752;SDS011;43583;53.132;6.574;2023-07-09T13:06:29;3.50;;;2.17;;
57752;SDS011;43583;53.132;6.574;2023-07-09T13:09:00;4.80;;;2.60;;
57752;SDS011;43583;53.132;6.574;2023-07-09T13:11:34;5.00;;;2.78;;
57752;SDS011;43583;53.132;6.574;2023-07-09T13:14:05;6.72;;;2.50;;
57752;SDS011;43583;53.132;6.574;2023-07-09T13:16:42;2.88;;;2.60;;
57752;SDS011;43583;53.132;6.574;2023-07-09T13:19:08;6.45;;;3.10;;
57752;SDS011;43583;53.132;6.574;2023-07-09T13:21:34;6.28;;;3.30;;
57752;SDS011;43583;53.132;6.574;2023-07-09T13:24:04;3.40;;;2.35;;
57752;SDS011;43583;53.132;6.574;2023-07-09T13:26:37;4.10;;;2.70;;
57752;SDS011;43583;53.132;6.574;2023-07-09T13:29:07;2.83;;;2.20;;
57752;SDS011;43583;53.132;6.574;2023-07-09T13:31:38;4.03;;;2.60;;
57752;SDS011;43583;53.132;6.574;2023-07-09T13:34:04;3.33;;;2.88;;
57752;SDS011;43583;53.132;6.574;2023-07-09T13:36:41;3.67;;;2.65;;
57752;SDS011;43583;53.132;6.574;2023-07-09T13:39:09;3.40;;;2.70;;
57752;SDS011;43583;53.132;6.574;2023-07-09T13:41:38;2.90;;;2.50;;
57752;SDS011;43583;53.132;6.574;2023-07-09T13:44:08;4.65;;;2.20;;
57752;SDS011;43583;53.132;6.574;2023-07-09T13:46:37;3.20;;;2.17;;
57752;SDS011;43583;53.132;6.574;2023-07-09T13:49:07;3.67;;;2.65;;
57752;SDS011;43583;53.132;6.574;2023-07-09T13:51:39;2.30;;;1.80;;
57752;SDS011;43583;53.132;6.574;2023-07-09T13:54:29;2.60;;;2.13;;
57752;SDS011;43583;53.132;6.574;2023-07-09T13:57:00;3.78;;;2.45;;
57752;SDS011;43583;53.132;6.574;2023-07-09T13:59:27;3.83;;;3.10;;
57752;SDS011;43583;53.132;6.574;2023-07-09T14:01:54;3.60;;;2.22;;
57752;SDS011;43583;53.132;6.574;2023-07-09T14:04:22;3.75;;;2.28;;
57752;SDS011;43583;53.132;6.574;2023-07-09T14:06:49;3.60;;;2.67;;
57752;SDS011;43583;53.132;6.574;2023-07-09T14:09:15;2.88;;;2.47;;
57752;SDS011;43583;53.132;6.574;2023-07-09T14:11:43;3.90;;;2.97;;
57752;SDS011;43583;53.132;6.574;2023-07-09T14:14:13;4.50;;;3.05;;
57752;SDS011;43583;53.132;6.574;2023-07-09T14:16:43;3.85;;;3.17;;
57752;SDS011;43583;53.132;6.574;2023-07-09T14:19:13;3.78;;;2.53;;
57752;SDS011;43583;53.132;6.574;2023-07-09T14:21:40;3.22;;;2.92;;
57752;SDS011;43583;53.132;6.574;2023-07-09T14:24:19;3.65;;;2.38;;
57752;SDS011;43583;53.132;6.574;2023-07-09T14:26:45;4.55;;;2.75;;
57752;SDS011;43583;53.132;6.574;2023-07-09T14:29:11;3.53;;;2.95;;
57752;SDS011;43583;53.132;6.574;2023-07-09T14:31:39;3.10;;;2.80;;
57752;SDS011;43583;53.132;6.574;2023-07-09T14:34:26;3.53;;;3.20;;
57752;SDS011;43583;53.132;6.574;2023-07-09T14:36:55;4.20;;;3.20;;
57752;SDS011;43583;53.132;6.574;2023-07-09T14:39:22;4.85;;;3.53;;
57752;SDS011;43583;53.132;6.574;2023-07-09T14:41:48;5.07;;;4.00;;
57752;SDS011;43583;53.132;6.574;2023-07-09T14:44:24;5.15;;;3.20;;
57752;SDS011;43583;53.132;6.574;2023-07-09T14:46:53;4.88;;;3.60;;
57752;SDS011;43583;53.132;6.574;2023-07-09T14:49:19;6.43;;;3.40;;
57752;SDS011;43583;53.132;6.574;2023-07-09T14:51:45;4.05;;;2.92;;
57752;SDS011;43583;53.132;6.574;2023-07-09T14:56:45;5.00;;;2.97;;
57752;SDS011;43583;53.132;6.574;2023-07-09T14:59:11;5.53;;;3.55;;
57752;SDS011;43583;53.132;6.574;2023-07-09T15:01:36;3.83;;;2.97;;
57752;SDS011;43583;53.132;6.574;2023-07-09T15:06:50;5.68;;;4.22;;
57752;SDS011;43583;53.132;6.574;2023-07-09T15:09:19;3.65;;;3.35;;
57752;SDS011;43583;53.132;6.574;2023-07-09T15:11:48;5.85;;;2.88;;
57752;SDS011;43583;53.132;6.574;2023-07-09T15:14:16;3.40;;;2.67;;
57752;SDS011;43583;53.132;6.574;2023-07-09T15:16:42;4.50;;;2.88;;
57752;SDS011;43583;53.132;6.574;2023-07-09T15:19:10;3.28;;;2.60;;
57752;SDS011;43583;53.132;6.574;2023-07-09T15:21:38;4.07;;;3.20;;
57752;SDS011;43583;53.132;6.574;2023-07-09T15:24:03;5.28;;;2.92;;
57752;SDS011;43583;53.132;6.574;2023-07-09T15:26:30;4.72;;;3.35;;
57752;SDS011;43583;53.132;6.574;2023-07-09T15:28:57;4.90;;;3.45;;